Time;durP1;ratioP1;P1;durP2;ratioP2;P2;SDS_P1;SDS_P2;PMS_P1;PMS_P2;Temp;Humidity;BMP_temperature;BMP_pressure;BME280_temperature;BME280_humidity;BME280_pressure;Samples;Min_cycle;Max_cycle;Signal;HPM_P1;HPM_P2
2021/01/01 00:00:30;;;;;;;210.20;115.85;;;5.20;99.90;;;;;;5055565;28;20040;-72
2021/01/01 00:02:59;;;;;;;227.57;121.25;;;5.10;99.90;;;;;;5051522;28;20033;-72
2021/01/01 00:05:32;;;;;;;250.98;122.45;;;5.10;99.90;;;;;;5054767;28;20705;-72
2021/01/01 00:07:58;;;;;;;144.32;84.15;;;5.10;99.90;;;;;;5064378;28;20032;-72
2021/01/01 00:10:24;;;;;;;142.88;84.13;;;5.00;99.90;;;;;;5064321;28;20400;-72
2021/01/01 00:12:49;;;;;;;141.35;82.57;;;4.80;99.90;;;;;;5050953;28;20059;-73
2021/01/01 00:15:15;;;;;;;144.80;81.88;;;4.80;99.90;;;;;;5065337;28;20025;-73
2021/01/01 00:17:41;;;;;;;141.32;72.22;;;4.90;99.90;;;;;;5063133;28;20024;-73
2021/01/01 00:20:10;;;;;;;122.07;69.15;;;4.80;99.90;;;;;;5061267;28;20100;-72
2021/01/01 00:22:37;;;;;;;121.60;69.82;;;4.80;99.90;;;;;;5061121;28;20122;-72
2021/01/01 00:25:07;;;;;;;143.70;82.57;;;4.70;99.90;;;;;;5063277;28;20109;-72
2021/01/01 00:27:33;;;;;;;110.68;68.95;;;4.60;99.90;;;;;;5061356;28;20025;-74
2021/01/01 00:29:59;;;;;;;94.97;57.80;;;4.50;99.90;;;;;;5055664;28;20057;-73
2021/01/01 00:32:25;;;;;;;87.60;53.03;;;4.50;99.90;;;;;;5051082;28;20100;-74
2021/01/01 00:34:51;;;;;;;99.63;56.05;;;4.50;99.90;;;;;;5068720;28;20033;-74
2021/01/01 00:37:17;;;;;;;80.43;50.15;;;4.50;99.90;;;;;;5054151;28;20025;-74
2021/01/01 00:39:43;;;;;;;96.65;59.20;;;4.40;99.90;;;;;;5050847;28;20029;-73
2021/01/01 00:42:09;;;;;;;142.57;76.47;;;4.30;99.90;;;;;;5058015;28;20029;-73
2021/01/01 00:44:35;;;;;;;75.15;45.80;;;4.30;99.90;;;;;;5059110;28;20078;-73
2021/01/01 00:47:01;;;;;;;63.47;39.13;;;4.20;99.90;;;;;;5061825;28;20020;-73
2021/01/01 00:49:28;;;;;;;69.03;39.83;;;4.20;99.90;;;;;;5064478;28;20511;-73
2021/01/01 00:51:54;;;;;;;71.45;44.03;;;4.10;99.90;;;;;;5051346;28;20499;-73
2021/01/01 00:54:20;;;;;;;63.45;40.15;;;4.10;99.90;;;;;;5054266;28;20032;-73
2021/01/01 00:56:45;;;;;;;69.78;40.55;;;4.00;99.90;;;;;;5071139;28;20099;-73
2021/01/01 00:59:11;;;;;;;63.13;39.10;;;4.10;99.90;;;;;;5071106;28;20028;-73
2021/01/01 01:01:37;;;;;;;59.03;34.95;;;4.10;99.90;;;;;;5057604;28;20029;-73
2021/01/01 01:04:03;;;;;;;61.25;37.50;;;4.10;99.90;;;;;;5051093;28;20031;-73
2021/01/01 01:06:30;;;;;;;77.32;43.50;;;4.10;99.90;;;;;;5051051;28;20021;-74
2021/01/01 01:08:56;;;;;;;88.95;51.28;;;4.00;99.90;;;;;;5051078;28;20379;-75
2021/01/01 01:11:30;;;;;;;80.95;47.70;;;4.00;99.90;;;;;;5033027;28;20021;-75
2021/01/01 01:13:56;;;;;;;74.97;44.15;;;4.10;99.90;;;;;;5050950;28;20360;-74
2021/01/01 01:16:24;;;;;;;66.10;41.75;;;4.00;99.90;;;;;;5050941;28;20020;-74
2021/01/01 01:18:50;;;;;;;80.05;44.40;;;3.90;99.90;;;;;;5050823;28;20025;-74
2021/01/01 01:21:16;;;;;;;81.10;45.28;;;3.90;99.90;;;;;;5056169;28;20028;-74
2021/01/01 01:23:42;;;;;;;86.18;46.05;;;3.90;99.90;;;;;;5062357;28;20025;-74
2021/01/01 01:26:08;;;;;;;90.90;48.60;;;3.80;99.90;;;;;;5052903;28;20104;-74
2021/01/01 01:28:34;;;;;;;80.45;45.58;;;3.90;99.90;;;;;;5050568;28;20078;-74
2021/01/01 01:31:01;;;;;;;79.85;41.30;;;3.90;99.90;;;;;;5050568;28;20048;-74
2021/01/01 01:33:26;;;;;;;67.65;40.15;;;3.90;99.90;;;;;;5050672;28;20029;-74
2021/01/01 01:35:53;;;;;;;62.85;36.22;;;3.90;99.90;;;;;;5050800;28;20027;-74
2021/01/01 01:38:19;;;;;;;56.53;36.60;;;3.90;99.90;;;;;;5032769;28;20033;-74
2021/01/01 01:40:44;;;;;;;54.70;35.33;;;3.90;99.90;;;;;;5050622;28;20043;-74
2021/01/01 01:43:10;;;;;;;49.38;32.33;;;3.90;99.90;;;;;;5050580;28;20103;-74
2021/01/01 01:45:36;;;;;;;51.92;32.78;;;3.80;99.90;;;;;;5050563;28;20029;-73
2021/01/01 01:48:07;;;;;;;52.45;33.35;;;3.90;99.90;;;;;;5050532;28;20025;-74
2021/01/01 01:50:34;;;;;;;46.38;31.20;;;3.90;99.90;;;;;;5050513;28;20033;-74
2021/01/01 01:53:00;;;;;;;43.88;29.98;;;3.90;99.90;;;;;;5050464;28;20535;-74
2021/01/01 01:55:25;;;;;;;40.40;28.05;;;3.90;99.90;;;;;;5032608;28;20029;-74
2021/01/01 01:57:54;;;;;;;39.42;26.80;;;3.90;99.90;;;;;;5050366;28;20527;-74
2021/01/01 02:02:54;;;;;;;67.60;35.63;;;3.90;99.90;;;;;;5050302;28;20071;-74
2021/01/01 02:05:20;;;;;;;67.60;36.28;;;3.80;99.90;;;;;;5050400;28;20029;-74
2021/01/01 02:07:46;;;;;;;65.07;35.80;;;3.70;99.90;;;;;;5050273;28;20018;-74
2021/01/01 02:10:12;;;;;;;59.15;35.25;;;3.70;99.90;;;;;;5050498;28;20033;-74
2021/01/01 02:12:39;;;;;;;59.30;35.55;;;3.70;99.90;;;;;;5050501;28;20090;-74
2021/01/01 02:15:06;;;;;;;61.08;37.03;;;3.70;99.90;;;;;;5050251;28;20025;-74
2021/01/01 02:17:32;;;;;;;66.03;39.80;;;3.70;99.90;;;;;;5050337;28;20112;-74
2021/01/01 02:20:08;;;;;;;59.63;36.55;;;3.70;99.90;;;;;;5050315;28;20488;-74
2021/01/01 02:22:38;;;;;;;58.75;34.60;;;3.70;99.90;;;;;;5050432;28;20032;-73
2021/01/01 02:25:05;;;;;;;58.10;34.28;;;3.70;99.90;;;;;;5050258;28;20025;-72
2021/01/01 02:27:31;;;;;;;53.42;31.15;;;3.70;99.90;;;;;;5050287;28;20472;-73
2021/01/01 02:29:57;;;;;;;44.47;27.00;;;3.80;99.90;;;;;;5049975;28;20132;-73
2021/01/01 02:32:23;;;;;;;44.25;27.55;;;3.80;99.90;;;;;;5050308;28;20116;-73
2021/01/01 02:34:49;;;;;;;46.65;29.67;;;3.80;99.90;;;;;;5050374;28;20041;-73
2021/01/01 02:37:15;;;;;;;48.15;30.80;;;3.80;99.90;;;;;;5050182;28;20052;-72
2021/01/01 02:39:41;;;;;;;49.10;31.83;;;3.80;99.90;;;;;;5050102;28;20036;-73
2021/01/01 02:42:07;;;;;;;56.63;33.47;;;3.80;99.90;;;;;;5050112;28;20021;-73
2021/01/01 02:44:33;;;;;;;48.92;30.73;;;3.70;99.90;;;;;;5052370;28;20032;-73
2021/01/01 02:47:05;;;;;;;64.47;37.13;;;3.80;99.90;;;;;;5053591;28;20025;-73
2021/01/01 02:49:31;;;;;;;51.25;34.22;;;3.80;99.90;;;;;;5053745;28;20032;-73
2021/01/01 02:51:58;;;;;;;53.55;33.40;;;3.80;99.90;;;;;;5053617;28;20021;-73
2021/01/01 02:54:24;;;;;;;57.88;34.75;;;3.80;99.90;;;;;;5053461;28;20024;-73
2021/01/01 02:56:50;;;;;;;56.08;36.08;;;3.80;99.90;;;;;;5053451;28;20025;-73
2021/01/01 02:59:15;;;;;;;54.53;34.25;;;3.70;99.90;;;;;;5053389;28;20025;-73
2021/01/01 03:01:41;;;;;;;37.80;25.48;;;3.70;99.90;;;;;;5053247;28;20028;-73
2021/01/01 03:04:09;;;;;;;50.22;34.67;;;3.70;99.90;;;;;;5053317;28;20027;-73
2021/01/01 03:06:35;;;;;;;52.30;30.73;;;3.60;99.90;;;;;;5053274;28;20032;-73
2021/01/01 03:09:01;;;;;;;42.75;26.02;;;3.60;99.90;;;;;;5053210;28;20090;-73
2021/01/01 03:11:27;;;;;;;39.40;26.58;;;3.60;99.90;;;;;;5053000;28;20057;-73
2021/01/01 03:13:53;;;;;;;44.15;26.52;;;3.50;99.90;;;;;;5053162;28;20425;-73
2021/01/01 03:16:19;;;;;;;42.55;27.88;;;3.50;99.90;;;;;;5053058;28;20021;-73
2021/01/01 03:18:44;;;;;;;41.08;26.63;;;3.40;99.90;;;;;;5053106;28;20476;-73
2021/01/01 03:21:10;;;;;;;33.58;23.52;;;3.50;99.90;;;;;;5052908;28;20024;-73
2021/01/01 03:23:36;;;;;;;184.45;34.80;;;3.40;99.90;;;;;;5052980;28;20464;-73
2021/01/01 03:26:02;;;;;;;32.85;21.35;;;3.50;99.90;;;;;;5053017;28;20017;-73
2021/01/01 03:28:28;;;;;;;44.22;23.35;;;3.50;99.90;;;;;;5052895;28;20105;-73
2021/01/01 03:30:54;;;;;;;39.00;25.13;;;3.50;99.90;;;;;;5052573;28;20057;-74
2021/01/01 03:33:19;;;;;;;64.93;31.38;;;3.50;99.90;;;;;;5052853;28;20025;-74
2021/01/01 03:35:45;;;;;;;58.88;31.27;;;3.50;99.90;;;;;;5052735;28;20028;-73
2021/01/01 03:38:11;;;;;;;60.13;33.63;;;3.30;99.90;;;;;;5052791;28;20036;-74
2021/01/01 03:40:37;;;;;;;63.25;36.08;;;3.30;99.90;;;;;;5052758;28;20025;-73
2021/01/01 03:43:03;;;;;;;62.67;35.53;;;3.40;99.90;;;;;;5052657;28;20021;-73
2021/01/01 03:45:29;;;;;;;55.38;33.30;;;3.30;99.90;;;;;;5052526;28;20025;-73
2021/01/01 03:47:55;;;;;;;57.42;34.80;;;3.30;99.90;;;;;;5052481;28;20021;-73
2021/01/01 03:50:21;;;;;;;66.22;34.80;;;3.40;99.90;;;;;;5052421;28;20109;-73
2021/01/01 03:52:47;;;;;;;58.25;33.70;;;3.40;99.90;;;;;;5052449;28;20056;-73
2021/01/01 03:55:12;;;;;;;54.70;32.95;;;3.40;99.90;;;;;;5052232;28;20029;-73
2021/01/01 03:57:40;;;;;;;53.08;31.80;;;3.40;99.90;;;;;;5052307;28;20095;-73
2021/01/01 04:00:06;;;;;;;47.25;30.35;;;3.40;99.90;;;;;;5052146;28;20027;-73
2021/01/01 04:02:32;;;;;;;46.13;29.33;;;3.40;99.90;;;;;;5052187;28;20025;-73
2021/01/01 04:04:58;;;;;;;60.58;34.83;;;3.40;99.90;;;;;;5052160;28;20021;-73
2021/01/01 04:07:24;;;;;;;99.22;53.75;;;3.50;99.90;;;;;;5052125;28;20017;-73
2021/01/01 04:09:50;;;;;;;108.50;55.28;;;3.50;99.90;;;;;;5052000;28;20472;-73
2021/01/01 04:12:16;;;;;;;93.55;46.58;;;3.40;99.90;;;;;;5051994;28;20131;-73
2021/01/01 04:14:42;;;;;;;68.65;36.90;;;3.50;99.90;;;;;;5051956;28;20056;-73
2021/01/01 04:17:07;;;;;;;58.58;35.58;;;3.50;99.90;;;;;;5051995;28;20504;-74
2021/01/01 04:19:33;;;;;;;59.42;36.40;;;3.50;99.90;;;;;;5051899;28;20032;-74
2021/01/01 04:21:59;;;;;;;53.05;32.83;;;3.40;99.90;;;;;;5051820;28;20017;-74
2021/01/01 04:24:25;;;;;;;46.47;30.88;;;3.40;99.90;;;;;;5051699;28;20032;-74
2021/01/01 04:26:51;;;;;;;66.95;40.45;;;3.40;99.90;;;;;;5051717;28;20511;-73
2021/01/01 04:29:17;;;;;;;80.78;49.70;;;3.40;99.90;;;;;;5051836;28;20798;-74
2021/01/01 04:31:43;;;;;;;65.45;40.42;;;3.30;99.90;;;;;;5051805;28;20091;-74
2021/01/01 04:34:09;;;;;;;58.70;36.17;;;3.30;99.90;;;;;;5051684;28;20044;-74
2021/01/01 04:36:36;;;;;;;51.60;34.45;;;3.30;99.90;;;;;;5051541;28;20107;-74
2021/01/01 04:39:06;;;;;;;56.22;34.80;;;3.20;99.90;;;;;;5051574;28;20021;-74
2021/01/01 04:41:34;;;;;;;51.80;32.95;;;3.20;99.90;;;;;;5051487;28;20024;-74
2021/01/01 04:44:00;;;;;;;48.75;31.55;;;3.10;99.90;;;;;;5051472;28;20432;-74
2021/01/01 04:46:26;;;;;;;42.72;27.73;;;3.10;99.90;;;;;;5051542;28;20079;-74
2021/01/01 04:48:53;;;;;;;42.40;27.27;;;3.10;99.90;;;;;;5051651;28;20675;-74
2021/01/01 04:51:19;;;;;;;53.00;28.48;;;3.00;99.90;;;;;;5033722;28;20049;-74
2021/01/01 04:53:47;;;;;;;39.28;27.17;;;3.00;99.90;;;;;;5051300;28;20147;-74
2021/01/01 04:56:13;;;;;;;40.00;27.42;;;3.00;99.90;;;;;;5051488;28;20032;-75
2021/01/01 04:58:39;;;;;;;35.58;24.05;;;3.00;99.90;;;;;;5051305;28;20032;-74
2021/01/01 05:01:05;;;;;;;39.92;26.20;;;3.00;99.90;;;;;;5051096;28;20543;-74
2021/01/01 05:03:31;;;;;;;41.92;26.38;;;3.00;99.90;;;;;;5051042;28;20041;-74
2021/01/01 05:05:57;;;;;;;38.28;24.85;;;3.00;99.90;;;;;;5050672;28;20021;-74
2021/01/01 05:08:23;;;;;;;40.67;27.20;;;3.00;99.90;;;;;;5051039;28;20025;-74
2021/01/01 05:10:50;;;;;;;42.78;28.50;;;3.00;99.90;;;;;;5051023;28;20025;-74
2021/01/01 05:13:19;;;;;;;49.05;32.50;;;2.90;99.90;;;;;;5051050;28;20060;-73
2021/01/01 05:15:46;;;;;;;51.67;31.23;;;2.90;99.90;;;;;;5050935;28;20036;-73
2021/01/01 05:18:30;;;;;;;46.08;32.30;;;2.90;99.90;;;;;;5050895;28;20075;-72
2021/01/01 05:20:59;;;;;;;45.72;30.33;;;2.80;99.90;;;;;;5050909;28;20056;-72
2021/01/01 05:23:27;;;;;;;46.60;32.65;;;2.80;99.90;;;;;;5050762;28;20035;-73
2021/01/01 05:26:13;;;;;;;48.33;32.03;;;2.80;99.90;;;;;;5050838;28;20028;-73
2021/01/01 05:28:52;;;;;;;44.50;31.70;;;2.80;99.90;;;;;;5050678;28;20159;-73
2021/01/01 05:31:24;;;;;;;41.38;28.35;;;2.70;99.90;;;;;;5050732;28;20120;-73
2021/01/01 05:34:00;;;;;;;53.65;29.73;;;2.70;99.90;;;;;;5050766;28;20029;-74
2021/01/01 05:36:34;;;;;;;40.85;29.13;;;2.70;99.90;;;;;;5050754;28;20029;-74
2021/01/01 05:39:01;;;;;;;39.95;26.73;;;2.70;99.90;;;;;;5050719;28;20043;-74
2021/01/01 05:41:35;;;;;;;40.95;27.70;;;2.70;99.90;;;;;;5050659;28;20036;-74
2021/01/01 05:44:25;;;;;;;41.92;28.40;;;2.60;99.90;;;;;;5050691;28;20021;-73
2021/01/01 05:46:56;;;;;;;43.67;27.70;;;2.60;99.90;;;;;;5050642;28;20021;-74
2021/01/01 05:49:40;;;;;;;47.17;24.77;;;2.60;99.90;;;;;;5050569;28;20041;-74
2021/01/01 05:52:10;;;;;;;40.58;28.77;;;2.60;99.90;;;;;;5050571;28;20036;-74
2021/01/01 05:54:39;;;;;;;43.63;28.35;;;2.60;99.90;;;;;;5050570;28;20388;-74
2021/01/01 05:57:07;;;;;;;43.55;27.02;;;2.60;99.90;;;;;;5050589;28;20032;-73
2021/01/01 05:59:41;;;;;;;87.85;33.30;;;2.60;99.90;;;;;;5050356;28;20112;-73
2021/01/01 06:02:09;;;;;;;41.80;28.10;;;2.50;99.90;;;;;;5050480;28;20028;-73
2021/01/01 06:04:35;;;;;;;37.35;25.88;;;2.60;99.90;;;;;;5032641;28;20025;-74
2021/01/01 06:07:04;;;;;;;39.85;25.63;;;2.60;99.90;;;;;;5050417;28;20013;-74
2021/01/01 06:09:31;;;;;;;38.38;26.05;;;2.60;99.90;;;;;;5050456;28;20025;-74
2021/01/01 06:12:01;;;;;;;46.15;30.60;;;2.60;99.90;;;;;;5050367;28;20025;-73
2021/01/01 06:14:35;;;;;;;52.90;32.40;;;2.60;99.90;;;;;;5050361;28;20021;-74
2021/01/01 06:17:16;;;;;;;54.00;34.15;;;2.50;99.90;;;;;;5050346;28;20033;-73
2021/01/01 06:19:49;;;;;;;67.80;35.33;;;2.50;99.90;;;;;;5035041;28;20036;-73
2021/01/01 06:22:30;;;;;;;59.63;35.88;;;2.50;99.90;;;;;;5054091;28;20029;-74
2021/01/01 06:24:58;;;;;;;54.75;36.03;;;2.40;99.90;;;;;;5054146;28;20469;-74
2021/01/01 06:27:26;;;;;;;57.92;36.53;;;2.50;99.90;;;;;;5054140;28;20392;-74
2021/01/01 06:29:57;;;;;;;55.03;33.97;;;2.40;99.90;;;;;;5053758;28;20041;-74
2021/01/01 06:32:23;;;;;;;49.88;32.53;;;2.40;99.90;;;;;;5053944;28;20106;-74
2021/01/01 06:34:51;;;;;;;48.30;29.90;;;2.30;99.90;;;;;;5053944;28;20468;-74
2021/01/01 06:37:37;;;;;;;42.60;28.15;;;2.30;99.90;;;;;;5053833;28;20025;-74
2021/01/01 06:40:21;;;;;;;42.97;28.02;;;2.40;99.90;;;;;;5053759;28;20383;-74
2021/01/01 06:43:05;;;;;;;62.53;29.83;;;2.40;99.90;;;;;;5053772;28;20031;-74
2021/01/01 06:45:35;;;;;;;41.92;26.20;;;2.40;99.90;;;;;;5053789;28;20494;-74
2021/01/01 06:48:05;;;;;;;42.63;27.70;;;2.40;99.90;;;;;;5053660;28;20108;-74
2021/01/01 06:50:33;;;;;;;47.42;30.60;;;2.50;99.90;;;;;;5053468;28;20380;-74
2021/01/01 06:53:04;;;;;;;54.63;35.58;;;2.50;99.90;;;;;;5053516;28;20025;-74
2021/01/01 06:55:34;;;;;;;56.83;37.80;;;2.40;99.90;;;;;;5053568;28;20029;-74
2021/01/01 06:58:00;;;;;;;69.15;42.10;;;2.40;99.90;;;;;;5053500;28;20021;-73
2021/01/01 07:00:44;;;;;;;56.85;35.38;;;2.50;99.90;;;;;;5053427;28;20032;-73
2021/01/01 07:03:36;;;;;;;61.25;35.78;;;2.50;99.90;;;;;;5053257;28;20029;-73
2021/01/01 07:06:02;;;;;;;48.42;31.67;;;2.50;99.90;;;;;;5035289;28;20044;-73
2021/01/01 07:08:42;;;;;;;43.88;28.88;;;2.60;99.90;;;;;;5053233;28;20464;-74
2021/01/01 07:11:11;;;;;;;;;;;2.60;99.90;;;;;;5053589;28;20029;-73
2021/01/01 07:13:44;;;;;;;51.88;32.80;;;2.50;99.90;;;;;;5053060;28;19912;-74
2021/01/01 07:16:11;;;;;;;161.93;43.03;;;2.50;99.90;;;;;;5052959;28;20047;-74
2021/01/01 07:18:37;;;;;;;60.42;39.13;;;2.50;99.90;;;;;;5052934;28;20104;-73
2021/01/01 07:21:05;;;;;;;64.22;40.83;;;2.60;99.90;;;;;;5052824;28;20029;-73
2021/01/01 07:23:31;;;;;;;58.47;39.58;;;2.60;99.90;;;;;;5052879;28;20024;-74
2021/01/01 07:25:57;;;;;;;62.08;40.47;;;2.60;99.90;;;;;;5052928;28;20021;-73
2021/01/01 07:28:25;;;;;;;50.72;32.70;;;2.70;99.90;;;;;;5052835;28;20098;-74
2021/01/01 07:30:51;;;;;;;44.35;28.48;;;2.70;99.90;;;;;;5052011;28;20053;-73
2021/01/01 07:33:21;;;;;;;38.65;27.38;;;2.70;99.90;;;;;;5052682;28;20056;-73
2021/01/01 07:35:51;;;;;;;35.83;26.55;;;2.80;99.90;;;;;;5052797;28;20021;-73
2021/01/01 07:38:18;;;;;;;42.10;26.70;;;2.80;99.90;;;;;;5052964;28;20033;-74
2021/01/01 07:40:45;;;;;;;46.50;31.40;;;2.80;99.90;;;;;;5052719;28;20108;-74
2021/01/01 07:43:11;;;;;;;45.92;30.80;;;2.80;99.90;;;;;;5052823;28;20032;-74
2021/01/01 07:45:37;;;;;;;48.13;30.75;;;2.80;99.90;;;;;;5052811;28;20064;-74
2021/01/01 07:48:04;;;;;;;55.03;32.78;;;2.90;99.90;;;;;;5052575;28;20056;-74
2021/01/01 07:50:31;;;;;;;51.97;31.75;;;2.90;99.90;;;;;;5052380;28;20029;-74
2021/01/01 07:53:09;;;;;;;62.40;37.65;;;2.90;99.90;;;;;;5052592;28;20094;-74
2021/01/01 07:55:35;;;;;;;59.50;39.20;;;3.10;99.90;;;;;;5052351;28;20036;-73
2021/01/01 07:58:05;;;;;;;57.25;37.47;;;3.20;99.90;;;;;;5034433;28;20048;-73
2021/01/01 08:00:33;;;;;;;47.72;31.20;;;3.30;99.90;;;;;;5052224;28;20487;-73
2021/01/01 08:03:03;;;;;;;44.97;30.38;;;3.40;99.90;;;;;;5052137;28;20037;-73
2021/01/01 08:05:29;;;;;;;44.35;29.60;;;3.40;99.90;;;;;;5052270;28;20472;-74
2021/01/01 08:08:09;;;;;;;45.72;28.98;;;3.50;99.90;;;;;;5052057;28;20036;-74
2021/01/01 08:10:35;;;;;;;44.50;28.17;;;3.60;99.90;;;;;;5052124;28;20534;-73
2021/01/01 08:13:01;;;;;;;50.60;31.10;;;3.70;99.90;;;;;;5052011;28;20032;-73
2021/01/01 08:15:28;;;;;;;43.05;28.17;;;3.80;99.90;;;;;;5051998;28;20108;-73
2021/01/01 08:17:54;;;;;;;44.97;28.60;;;3.90;99.90;;;;;;5034101;28;20067;-73
2021/01/01 08:20:20;;;;;;;55.25;31.38;;;4.00;99.90;;;;;;5051793;28;20029;-73
2021/01/01 08:22:48;;;;;;;49.30;30.58;;;4.10;99.90;;;;;;5051858;28;20021;-73
2021/01/01 08:25:16;;;;;;;41.85;27.83;;;4.30;99.90;;;;;;5051778;28;20044;-74
2021/01/01 08:27:43;;;;;;;45.55;30.92;;;4.40;99.90;;;;;;5051780;28;20486;-74
2021/01/01 08:30:10;;;;;;;54.47;33.20;;;4.50;99.90;;;;;;5051374;28;20088;-74
2021/01/01 08:32:39;;;;;;;49.03;29.92;;;4.60;99.90;;;;;;5051726;28;20108;-74
2021/01/01 08:35:09;;;;;;;48.50;29.83;;;4.70;99.90;;;;;;5051595;28;20773;-74
2021/01/01 08:37:35;;;;;;;52.28;33.92;;;4.90;99.90;;;;;;5051552;28;20017;-74
2021/01/01 08:40:06;;;;;;;44.30;31.05;;;4.90;99.90;;;;;;5051466;28;20098;-74
2021/01/01 08:42:37;;;;;;;51.70;31.77;;;5.10;99.90;;;;;;5050584;28;20021;-74
2021/01/01 08:45:08;;;;;;;50.33;34.17;;;5.20;99.90;;;;;;5051529;28;20506;-74
2021/01/01 08:47:44;;;;;;;42.85;27.52;;;5.30;99.90;;;;;;5051539;28;20132;-74
2021/01/01 08:50:28;;;;;;;32.95;23.35;;;5.40;99.90;;;;;;5051327;28;20031;-74
2021/01/01 08:52:58;;;;;;;29.85;21.08;;;5.50;99.90;;;;;;5051289;28;20071;-73
2021/01/01 08:55:24;;;;;;;32.70;21.30;;;5.50;99.90;;;;;;5051345;28;20029;-74
2021/01/01 08:57:50;;;;;;;33.25;21.58;;;5.60;99.90;;;;;;5051210;28;20124;-74
2021/01/01 09:00:17;;;;;;;35.58;21.20;;;5.70;99.90;;;;;;5051115;28;20531;-74
2021/01/01 09:02:45;;;;;;;34.50;23.42;;;5.80;99.90;;;;;;5051097;28;20468;-74
2021/01/01 09:05:12;;;;;;;34.47;22.55;;;6.00;99.90;;;;;;5051119;28;20086;-74
2021/01/01 09:07:38;;;;;;;38.67;24.95;;;6.10;99.90;;;;;;5051071;28;20376;-74
2021/01/01 09:10:17;;;;;;;35.38;24.52;;;6.20;99.90;;;;;;5065774;28;20024;-74
2021/01/01 09:12:43;;;;;;;37.20;23.33;;;6.40;99.90;;;;;;5071030;28;20025;-74
2021/01/01 09:15:10;;;;;;;48.70;25.40;;;6.50;99.90;;;;;;5071021;28;20383;-74
2021/01/01 09:17:36;;;;;;;39.92;26.85;;;6.60;99.90;;;;;;5070942;28;20074;-74
2021/01/01 09:20:08;;;;;;;32.92;23.15;;;6.70;99.90;;;;;;5070774;28;20021;-74
2021/01/01 09:22:36;;;;;;;37.80;25.10;;;6.90;99.90;;;;;;5071099;28;20199;-74
2021/01/01 09:25:23;;;;;;;35.67;24.15;;;7.00;99.90;;;;;;5071011;28;20109;-74
2021/01/01 09:27:50;;;;;;;54.35;37.17;;;7.20;99.90;;;;;;5071076;28;20029;-74
2021/01/01 09:30:21;;;;;;;71.28;43.33;;;7.40;99.90;;;;;;5070865;28;20048;-74
2021/01/01 09:32:48;;;;;;;;;;;7.60;99.90;;;;;;5071215;28;20533;-74
2021/01/01 09:35:14;;;;;;;49.58;34.13;;;7.80;99.90;;;;;;5070751;28;19904;-74
2021/01/01 09:37:52;;;;;;;68.05;37.17;;;7.80;99.90;;;;;;5070760;28;20053;-74
2021/01/01 09:40:22;;;;;;;40.05;27.65;;;8.00;99.90;;;;;;5070711;28;20515;-74
2021/01/01 09:42:48;;;;;;;40.60;27.15;;;8.00;99.90;;;;;;5070653;28;20052;-74
2021/01/01 09:45:15;;;;;;;37.58;25.38;;;8.10;99.90;;;;;;5070709;28;20476;-75
2021/01/01 09:47:41;;;;;;;47.78;30.08;;;8.40;99.90;;;;;;5070522;28;20095;-75
2021/01/01 09:50:08;;;;;;;38.60;28.15;;;8.40;99.90;;;;;;5070669;28;20095;-74
2021/01/01 09:52:38;;;;;;;34.63;24.45;;;8.30;99.90;;;;;;5071451;28;20036;-74
2021/01/01 09:55:05;;;;;;;50.40;30.93;;;8.40;99.90;;;;;;5074708;28;20025;-74
2021/01/01 09:57:31;;;;;;;64.28;40.45;;;8.50;99.90;;;;;;5074499;28;20025;-73
2021/01/01 09:59:58;;;;;;;68.47;40.20;;;8.70;99.90;;;;;;5074554;28;20033;-73
2021/01/01 10:02:24;;;;;;;49.20;33.45;;;8.80;99.90;;;;;;5074459;28;20136;-73
2021/01/01 10:04:50;;;;;;;51.15;34.20;;;8.80;99.90;;;;;;5074318;28;20039;-74
2021/01/01 10:07:17;;;;;;;47.58;33.20;;;9.00;99.90;;;;;;5056334;28;20028;-74
2021/01/01 10:09:43;;;;;;;40.53;29.65;;;9.30;99.90;;;;;;5074357;28;20078;-73
2021/01/01 10:12:12;;;;;;;40.70;28.17;;;9.40;99.90;;;;;;5074333;28;20028;-74
2021/01/01 10:14:38;;;;;;;42.65;28.77;;;9.40;99.90;;;;;;5074231;28;20044;-74
2021/01/01 10:17:04;;;;;;;42.53;29.90;;;9.60;99.90;;;;;;5074202;28;20020;-74
2021/01/01 10:19:30;;;;;;;48.97;34.13;;;9.60;99.90;;;;;;5074146;28;20442;-74
2021/01/01 10:21:55;;;;;;;46.92;31.95;;;9.80;99.90;;;;;;5074134;28;20042;-74
2021/01/01 10:24:24;;;;;;;52.17;33.40;;;9.90;99.90;;;;;;5074141;28;20020;-74
2021/01/01 10:26:51;;;;;;;37.05;25.25;;;10.00;99.90;;;;;;5074050;28;20042;-74
2021/01/01 10:29:17;;;;;;;39.63;27.33;;;10.00;99.90;;;;;;5073861;28;20041;-74
2021/01/01 10:31:44;;;;;;;31.40;23.00;;;10.20;99.90;;;;;;5073912;28;20109;-75
2021/01/01 10:34:10;;;;;;;27.65;19.15;;;10.20;99.90;;;;;;5073853;28;20029;-74
2021/01/01 10:36:37;;;;;;;29.52;19.55;;;10.40;99.90;;;;;;5073908;28;20107;-75
2021/01/01 10:39:08;;;;;;;55.28;20.70;;;10.40;99.90;;;;;;5073839;28;20055;-74
2021/01/01 10:41:35;;;;;;;32.55;22.13;;;10.50;99.90;;;;;;5073652;28;20059;-73
2021/01/01 10:44:05;;;;;;;34.45;24.23;;;10.60;99.90;;;;;;5073563;28;20027;-74
2021/01/01 10:46:31;;;;;;;33.87;22.37;;;10.70;99.90;;;;;;5058581;28;20032;-73
2021/01/01 10:49:00;;;;;;;23.02;17.05;;;10.70;99.90;;;;;;5067910;28;20759;-73
2021/01/01 10:51:27;;;;;;;24.13;17.48;;;10.90;99.90;;;;;;5053519;28;20074;-74
2021/01/01 10:53:53;;;;;;;27.58;19.42;;;11.00;99.90;;;;;;5053530;28;20361;-74
2021/01/01 10:56:23;;;;;;;26.23;17.95;;;11.00;99.90;;;;;;5053457;28;20158;-74
2021/01/01 10:58:50;;;;;;;29.23;19.63;;;10.90;99.90;;;;;;5035737;28;20040;-74
2021/01/01 11:01:23;;;;;;;30.17;19.25;;;11.00;99.90;;;;;;5053530;28;20087;-73
2021/01/01 11:03:53;;;;;;;27.73;17.90;;;11.10;99.90;;;;;;5052697;28;20380;-74
2021/01/01 11:06:19;;;;;;;23.13;15.65;;;11.10;99.90;;;;;;5053142;28;20105;-74
2021/01/01 11:08:46;;;;;;;23.92;16.92;;;11.20;99.90;;;;;;5053325;28;20154;-73
2021/01/01 11:11:13;;;;;;;23.13;16.20;;;11.30;99.90;;;;;;5053183;28;20062;-74
2021/01/01 11:13:47;;;;;;;20.90;14.02;;;11.50;99.90;;;;;;5053200;28;20021;-74
2021/01/01 12:25:14;;;;;;;28.52;18.63;;;13.00;99.90;;;;;;5092121;28;20048;-75
2021/01/01 12:27:42;;;;;;;27.45;18.38;;;12.90;99.90;;;;;;5091322;28;20012;-75
2021/01/01 12:30:10;;;;;;;29.35;18.40;;;12.80;99.90;;;;;;5090920;28;20052;-75
2021/01/01 12:32:40;;;;;;;36.53;20.50;;;12.80;99.90;;;;;;5073058;28;20498;-75
2021/01/01 12:35:09;;;;;;;36.78;21.83;;;12.80;99.90;;;;;;5091714;28;20028;-75
2021/01/01 12:37:36;;;;;;;25.40;18.10;;;12.80;99.90;;;;;;5090684;28;20078;-75
2021/01/01 12:40:04;;;;;;;31.55;22.15;;;13.00;99.90;;;;;;5090409;28;20024;-75
2021/01/01 12:42:30;;;;;;;40.25;22.98;;;12.90;99.90;;;;;;5091507;28;20059;-75
2021/01/01 12:44:55;;;;;;;35.63;23.27;;;12.90;99.90;;;;;;5091089;28;20044;-75
2021/01/01 12:47:21;;;;;;;22.63;16.13;;;13.00;99.10;;;;;;5091502;28;20074;-75
2021/01/01 12:49:47;;;;;;;26.27;17.08;;;13.00;98.50;;;;;;5073206;28;20032;-75
2021/01/01 12:52:13;;;;;;;28.40;18.75;;;13.10;97.40;;;;;;5091306;28;20091;-75
2021/01/01 12:54:39;;;;;;;37.63;21.67;;;13.10;98.40;;;;;;5091413;28;20055;-75
2021/01/01 12:57:05;;;;;;;26.90;17.80;;;13.00;98.30;;;;;;5091300;28;20024;-75
2021/01/01 12:59:31;;;;;;;20.50;15.13;;;13.10;98.30;;;;;;5091426;28;20542;-75
2021/01/01 13:01:57;;;;;;;25.05;17.98;;;13.40;98.10;;;;;;5091266;28;20031;-75
2021/01/01 13:04:23;;;;;;;85.18;20.73;;;13.30;97.80;;;;;;5091927;28;20028;-74
2021/01/01 13:06:50;;;;;;;31.63;21.92;;;13.40;96.60;;;;;;5091090;28;20417;-75
2021/01/01 13:09:16;;;;;;;41.15;24.75;;;13.40;97.20;;;;;;5091072;28;20012;-75
2021/01/01 13:11:43;;;;;;;38.85;25.52;;;13.30;97.70;;;;;;5091027;28;20525;-75
2021/01/01 13:14:09;;;;;;;35.78;25.40;;;13.30;98.00;;;;;;5091032;28;20046;-75
2021/01/01 13:16:34;;;;;;;34.55;23.55;;;13.20;98.20;;;;;;5090961;28;20034;-74
2021/01/01 13:19:00;;;;;;;27.10;18.33;;;13.10;98.70;;;;;;5090880;28;20020;-75
2021/01/01 13:21:37;;;;;;;29.25;20.10;;;13.10;96.40;;;;;;5090843;28;20084;-74
2021/01/01 13:24:04;;;;;;;38.38;25.13;;;13.00;95.70;;;;;;5090878;28;20137;-74
2021/01/01 13:26:31;;;;;;;48.38;32.60;;;12.80;96.00;;;;;;5091400;28;20023;-74
2021/01/01 13:28:58;;;;;;;40.47;27.75;;;12.70;97.70;;;;;;5090173;28;20062;-75
2021/01/01 13:31:37;;;;;;;39.42;28.02;;;12.70;99.20;;;;;;5090869;28;20436;-74
2021/01/01 13:34:05;;;;;;;47.92;33.67;;;12.60;98.70;;;;;;5090696;28;20078;-74
2021/01/01 13:36:30;;;;;;;33.45;24.58;;;12.50;99.80;;;;;;5090716;28;20016;-74
2021/01/01 13:38:56;;;;;;;38.25;25.75;;;12.50;99.90;;;;;;5090673;28;20039;-75
2021/01/01 13:41:22;;;;;;;47.17;29.42;;;12.50;99.30;;;;;;5090501;28;20024;-75
2021/01/01 13:43:48;;;;;;;66.57;39.50;;;12.50;99.90;;;;;;5090746;28;20487;-75
2021/01/01 13:46:25;;;;;;;75.05;39.50;;;12.30;99.40;;;;;;5090691;28;20044;-75
2021/01/01 13:48:53;;;;;;;68.53;38.78;;;12.20;99.90;;;;;;5090966;28;20024;-75
2021/01/01 13:51:29;;;;;;;65.78;39.38;;;12.20;99.90;;;;;;5090921;28;20052;-75